sensor_id;sensor_type;location;lat;lon;timestamp;temperature;humidity
14122;DHT22;7139;48.114;11.442;2022-07-04T00:01:20;21.10;96.60
14122;DHT22;7139;48.114;11.442;2022-07-04T00:03:46;21.10;96.10
14122;DHT22;7139;48.114;11.442;2022-07-04T00:06:13;21.10;96.60
14122;DHT22;7139;48.114;11.442;2022-07-04T00:08:41;21.10;97.50
14122;DHT22;7139;48.114;11.442;2022-07-04T00:11:08;21.00;99.20
14122;DHT22;7139;48.114;11.442;2022-07-04T00:13:35;20.90;99.60
14122;DHT22;7139;48.114;11.442;2022-07-04T00:16:01;20.80;99.90
14122;DHT22;7139;48.114;11.442;2022-07-04T00:18:28;20.70;99.90
14122;DHT22;7139;48.114;11.442;2022-07-04T00:20:55;20.60;99.90
14122;DHT22;7139;48.114;11.442;2022-07-04T00:23:22;20.50;99.90
14122;DHT22;7139;48.114;11.442;2022-07-04T00:25:50;20.30;99.90
14122;DHT22;7139;48.114;11.442;2022-07-04T00:28:17;20.30;99.90
14122;DHT22;7139;48.114;11.442;2022-07-04T00:30:44;20.30;99.90
14122;DHT22;7139;48.114;11.442;2022-07-04T00:33:11;20.30;99.90
14122;DHT22;7139;48.114;11.442;2022-07-04T00:35:38;20.30;99.90
14122;DHT22;7139;48.114;11.442;2022-07-04T00:38:05;20.30;99.90
14122;DHT22;7139;48.114;11.442;2022-07-04T00:40:32;20.30;99.90
14122;DHT22;7139;48.114;11.442;2022-07-04T00:43:02;20.20;99.90
14122;DHT22;7139;48.114;11.442;2022-07-04T00:45:28;20.20;99.90
14122;DHT22;7139;48.114;11.442;2022-07-04T00:47:55;20.20;99.90
14122;DHT22;7139;48.114;11.442;2022-07-04T00:50:22;20.20;99.90
14122;DHT22;7139;48.114;11.442;2022-07-04T00:52:50;20.20;99.90
14122;DHT22;7139;48.114;11.442;2022-07-04T00:55:17;20.20;99.90
14122;DHT22;7139;48.114;11.442;2022-07-04T00:57:44;20.20;99.90
14122;DHT22;7139;48.114;11.442;2022-07-04T01:00:13;20.20;99.90
14122;DHT22;7139;48.114;11.442;2022-07-04T01:02:40;20.10;99.90
14122;DHT22;7139;48.114;11.442;2022-07-04T01:05:07;20.10;99.90
14122;DHT22;7139;48.114;11.442;2022-07-04T01:07:35;20.10;99.90
14122;DHT22;7139;48.114;11.442;2022-07-04T01:10:02;20.00;99.90
14122;DHT22;7139;48.114;11.442;2022-07-04T01:12:30;19.90;99.90
14122;DHT22;7139;48.114;11.442;2022-07-04T01:14:57;20.00;99.90
14122;DHT22;7139;48.114;11.442;2022-07-04T01:17:25;19.90;99.90
14122;DHT22;7139;48.114;11.442;2022-07-04T01:19:52;20.00;99.90
14122;DHT22;7139;48.114;11.442;2022-07-04T01:22:20;20.00;99.90
14122;DHT22;7139;48.114;11.442;2022-07-04T01:24:48;20.00;99.90
14122;DHT22;7139;48.114;11.442;2022-07-04T01:27:15;19.90;99.90
14122;DHT22;7139;48.114;11.442;2022-07-04T01:29:42;19.90;99.90
14122;DHT22;7139;48.114;11.442;2022-07-04T01:32:09;19.90;99.90
14122;DHT22;7139;48.114;11.442;2022-07-04T01:34:36;20.00;99.90
14122;DHT22;7139;48.114;11.442;2022-07-04T01:37:04;20.00;99.90
14122;DHT22;7139;48.114;11.442;2022-07-04T01:39:32;20.00;99.90
14122;DHT22;7139;48.114;11.442;2022-07-04T01:41:59;20.00;99.90
14122;DHT22;7139;48.114;11.442;2022-07-04T01:44:26;20.00;99.90
14122;DHT22;7139;48.114;11.442;2022-07-04T01:46:53;19.90;99.90
14122;DHT22;7139;48.114;11.442;2022-07-04T01:49:20;20.00;99.90
14122;DHT22;7139;48.114;11.442;2022-07-04T01:51:48;20.00;99.90
14122;DHT22;7139;48.114;11.442;2022-07-04T01:54:15;20.00;99.90
14122;DHT22;7139;48.114;11.442;2022-07-04T01:56:43;20.00;99.90
14122;DHT22;7139;48.114;11.442;2022-07-04T01:59:10;20.00;99.90
14122;DHT22;7139;48.114;11.442;2022-07-04T02:01:37;20.00;99.90
14122;DHT22;7139;48.114;11.442;2022-07-04T02:04:05;20.00;99.90
14122;DHT22;7139;48.114;11.442;2022-07-04T02:06:32;20.00;99.90
14122;DHT22;7139;48.114;11.442;2022-07-04T02:08:59;20.10;99.90
14122;DHT22;7139;48.114;11.442;2022-07-04T02:11:44;20.10;99.90
14122;DHT22;7139;48.114;11.442;2022-07-04T02:14:29;20.10;99.90
14122;DHT22;7139;48.114;11.442;2022-07-04T02:16:56;20.10;99.90
14122;DHT22;7139;48.114;11.442;2022-07-04T02:19:23;20.10;99.90
14122;DHT22;7139;48.114;11.442;2022-07-04T02:21:50;20.20;99.90
14122;DHT22;7139;48.114;11.442;2022-07-04T02:24:17;20.20;99.90
14122;DHT22;7139;48.114;11.442;2022-07-04T02:26:46;20.30;99.90
14122;DHT22;7139;48.114;11.442;2022-07-04T02:29:13;20.30;99.90
14122;DHT22;7139;48.114;11.442;2022-07-04T02:31:39;20.30;99.90
14122;DHT22;7139;48.114;11.442;2022-07-04T02:34:06;20.20;99.90
14122;DHT22;7139;48.114;11.442;2022-07-04T02:36:33;20.20;99.90
14122;DHT22;7139;48.114;11.442;2022-07-04T02:39:00;20.20;99.90
14122;DHT22;7139;48.114;11.442;2022-07-04T02:41:26;20.20;99.90
14122;DHT22;7139;48.114;11.442;2022-07-04T02:43:54;20.20;99.90
14122;DHT22;7139;48.114;11.442;2022-07-04T02:46:23;20.20;99.90
14122;DHT22;7139;48.114;11.442;2022-07-04T02:48:49;20.20;99.90
14122;DHT22;7139;48.114;11.442;2022-07-04T02:51:16;20.20;99.90
14122;DHT22;7139;48.114;11.442;2022-07-04T02:53:43;20.20;99.90
14122;DHT22;7139;48.114;11.442;2022-07-04T02:56:10;20.10;99.90
14122;DHT22;7139;48.114;11.442;2022-07-04T02:58:37;20.10;99.90
14122;DHT22;7139;48.114;11.442;2022-07-04T03:01:05;20.10;99.90
14122;DHT22;7139;48.114;11.442;2022-07-04T03:03:32;20.00;99.90
14122;DHT22;7139;48.114;11.442;2022-07-04T03:05:58;20.00;99.90
14122;DHT22;7139;48.114;11.442;2022-07-04T03:08:26;19.90;99.90
14122;DHT22;7139;48.114;11.442;2022-07-04T03:10:52;19.90;99.90
14122;DHT22;7139;48.114;11.442;2022-07-04T03:13:19;19.90;99.90
14122;DHT22;7139;48.114;11.442;2022-07-04T03:15:46;19.90;99.90
14122;DHT22;7139;48.114;11.442;2022-07-04T03:18:14;19.80;99.90
14122;DHT22;7139;48.114;11.442;2022-07-04T03:20:41;19.80;99.90
14122;DHT22;7139;48.114;11.442;2022-07-04T03:23:08;19.80;99.90
14122;DHT22;7139;48.114;11.442;2022-07-04T03:25:35;19.70;99.90
14122;DHT22;7139;48.114;11.442;2022-07-04T03:28:03;19.70;99.90
14122;DHT22;7139;48.114;11.442;2022-07-04T03:30:30;19.70;99.90
14122;DHT22;7139;48.114;11.442;2022-07-04T03:32:56;19.70;99.90
14122;DHT22;7139;48.114;11.442;2022-07-04T03:35:25;19.60;99.90
14122;DHT22;7139;48.114;11.442;2022-07-04T03:37:52;19.60;99.90
14122;DHT22;7139;48.114;11.442;2022-07-04T03:40:20;19.60;99.90
14122;DHT22;7139;48.114;11.442;2022-07-04T03:42:47;19.60;99.90
14122;DHT22;7139;48.114;11.442;2022-07-04T03:45:14;19.60;99.90
14122;DHT22;7139;48.114;11.442;2022-07-04T03:47:41;19.50;99.90
14122;DHT22;7139;48.114;11.442;2022-07-04T03:50:08;19.50;99.90
14122;DHT22;7139;48.114;11.442;2022-07-04T03:52:36;19.60;99.90
14122;DHT22;7139;48.114;11.442;2022-07-04T03:55:04;19.60;99.90
14122;DHT22;7139;48.114;11.442;2022-07-04T03:57:30;19.60;99.90
14122;DHT22;7139;48.114;11.442;2022-07-04T03:59:57;19.60;99.90
14122;DHT22;7139;48.114;11.442;2022-07-04T04:02:24;19.60;99.90
14122;DHT22;7139;48.114;11.442;2022-07-04T04:04:51;19.60;99.90
14122;DHT22;7139;48.114;11.442;2022-07-04T04:07:36;19.60;99.90
14122;DHT22;7139;48.114;11.442;2022-07-04T04:10:03;19.60;99.90
14122;DHT22;7139;48.114;11.442;2022-07-04T04:12:31;19.60;99.90
14122;DHT22;7139;48.114;11.442;2022-07-04T04:14:57;19.60;99.90
14122;DHT22;7139;48.114;11.442;2022-07-04T04:17:24;19.60;99.90
14122;DHT22;7139;48.114;11.442;2022-07-04T04:19:51;19.60;99.90
14122;DHT22;7139;48.114;11.442;2022-07-04T04:22:17;19.60;99.90
14122;DHT22;7139;48.114;11.442;2022-07-04T04:24:46;19.60;99.90
14122;DHT22;7139;48.114;11.442;2022-07-04T04:27:13;19.70;99.90
14122;DHT22;7139;48.114;11.442;2022-07-04T04:29:39;19.70;99.90
14122;DHT22;7139;48.114;11.442;2022-07-04T04:32:07;19.70;99.90
14122;DHT22;7139;48.114;11.442;2022-07-04T04:34:34;19.80;99.90
14122;DHT22;7139;48.114;11.442;2022-07-04T04:37:01;19.80;99.90
14122;DHT22;7139;48.114;11.442;2022-07-04T04:39:28;19.80;99.90
14122;DHT22;7139;48.114;11.442;2022-07-04T04:41:56;19.80;99.90
14122;DHT22;7139;48.114;11.442;2022-07-04T04:44:22;19.90;99.90
14122;DHT22;7139;48.114;11.442;2022-07-04T04:46:49;19.90;99.90
14122;DHT22;7139;48.114;11.442;2022-07-04T04:49:16;19.90;99.90
14122;DHT22;7139;48.114;11.442;2022-07-04T04:51:44;20.00;99.90
14122;DHT22;7139;48.114;11.442;2022-07-04T04:54:10;20.00;99.90
14122;DHT22;7139;48.114;11.442;2022-07-04T04:56:37;20.00;99.90
14122;DHT22;7139;48.114;11.442;2022-07-04T04:59:05;20.00;99.90
14122;DHT22;7139;48.114;11.442;2022-07-04T05:01:33;20.00;99.90
14122;DHT22;7139;48.114;11.442;2022-07-04T05:04:00;20.00;99.90
14122;DHT22;7139;48.114;11.442;2022-07-04T05:06:27;20.00;99.90
14122;DHT22;7139;48.114;11.442;2022-07-04T05:08:53;20.10;99.90
14122;DHT22;7139;48.114;11.442;2022-07-04T05:11:20;20.00;99.90
14122;DHT22;7139;48.114;11.442;2022-07-04T05:13:47;20.00;99.90
14122;DHT22;7139;48.114;11.442;2022-07-04T05:16:15;20.00;99.90
14122;DHT22;7139;48.114;11.442;2022-07-04T05:18:42;20.00;99.90
14122;DHT22;7139;48.114;11.442;2022-07-04T05:21:09;19.90;99.90
14122;DHT22;7139;48.114;11.442;2022-07-04T05:23:35;19.90;99.90
14122;DHT22;7139;48.114;11.442;2022-07-04T05:26:02;19.90;99.90
14122;DHT22;7139;48.114;11.442;2022-07-04T05:28:29;20.00;99.90
14122;DHT22;7139;48.114;11.442;2022-07-04T05:30:56;20.00;99.90
14122;DHT22;7139;48.114;11.442;2022-07-04T05:33:24;20.00;99.90
14122;DHT22;7139;48.114;11.442;2022-07-04T05:35:50;20.00;99.90
14122;DHT22;7139;48.114;11.442;2022-07-04T05:38:17;20.00;99.90
14122;DHT22;7139;48.114;11.442;2022-07-04T05:40:44;20.10;99.90
14122;DHT22;7139;48.114;11.442;2022-07-04T05:43:11;20.10;99.90
14122;DHT22;7139;48.114;11.442;2022-07-04T05:45:38;20.00;99.90
14122;DHT22;7139;48.114;11.442;2022-07-04T05:48:05;20.00;99.90
14122;DHT22;7139;48.114;11.442;2022-07-04T05:50:33;19.90;99.90
14122;DHT22;7139;48.114;11.442;2022-07-04T05:53:00;19.90;99.90
14122;DHT22;7139;48.114;11.442;2022-07-04T05:55:27;19.90;99.90
14122;DHT22;7139;48.114;11.442;2022-07-04T05:57:54;19.90;99.90
14122;DHT22;7139;48.114;11.442;2022-07-04T06:00:20;19.90;99.90
14122;DHT22;7139;48.114;11.442;2022-07-04T06:02:47;20.00;99.90
14122;DHT22;7139;48.114;11.442;2022-07-04T06:05:14;20.00;99.90
14122;DHT22;7139;48.114;11.442;2022-07-04T06:07:42;20.00;99.90
14122;DHT22;7139;48.114;11.442;2022-07-04T06:10:09;20.00;99.90
14122;DHT22;7139;48.114;11.442;2022-07-04T06:12:36;20.00;99.90
14122;DHT22;7139;48.114;11.442;2022-07-04T06:15:05;20.00;99.90
14122;DHT22;7139;48.114;11.442;2022-07-04T06:17:32;20.10;99.90
14122;DHT22;7139;48.114;11.442;2022-07-04T06:19:59;20.10;99.90
14122;DHT22;7139;48.114;11.442;2022-07-04T06:22:25;20.00;99.90
14122;DHT22;7139;48.114;11.442;2022-07-04T06:24:54;20.00;99.90
14122;DHT22;7139;48.114;11.442;2022-07-04T06:27:20;20.00;99.90
14122;DHT22;7139;48.114;11.442;2022-07-04T06:29:47;20.00;99.90
14122;DHT22;7139;48.114;11.442;2022-07-04T06:32:14;20.00;99.90
14122;DHT22;7139;48.114;11.442;2022-07-04T06:34:41;20.00;99.90
14122;DHT22;7139;48.114;11.442;2022-07-04T06:37:26;20.00;99.90
14122;DHT22;7139;48.114;11.442;2022-07-04T06:39:54;20.00;99.90
14122;DHT22;7139;48.114;11.442;2022-07-04T06:42:21;20.00;99.90
14122;DHT22;7139;48.114;11.442;2022-07-04T06:44:48;20.00;99.90
14122;DHT22;7139;48.114;11.442;2022-07-04T06:47:14;19.90;99.90
14122;DHT22;7139;48.114;11.442;2022-07-04T06:49:41;19.90;99.90
14122;DHT22;7139;48.114;11.442;2022-07-04T06:52:08;20.00;99.90
14122;DHT22;7139;48.114;11.442;2022-07-04T06:54:35;20.00;99.90
14122;DHT22;7139;48.114;11.442;2022-07-04T06:57:03;20.00;99.90
14122;DHT22;7139;48.114;11.442;2022-07-04T06:59:30;20.10;99.90
14122;DHT22;7139;48.114;11.442;2022-07-04T07:01:57;20.10;99.90
14122;DHT22;7139;48.114;11.442;2022-07-04T07:04:24;20.20;99.90
14122;DHT22;7139;48.114;11.442;2022-07-04T07:06:50;20.20;99.90
14122;DHT22;7139;48.114;11.442;2022-07-04T07:09:17;20.20;99.90
14122;DHT22;7139;48.114;11.442;2022-07-04T07:11:44;20.20;99.90
14122;DHT22;7139;48.114;11.442;2022-07-04T07:14:12;20.20;99.90
14122;DHT22;7139;48.114;11.442;2022-07-04T07:16:39;20.20;99.90
14122;DHT22;7139;48.114;11.442;2022-07-04T07:19:06;20.20;99.90
14122;DHT22;7139;48.114;11.442;2022-07-04T07:21:32;20.10;99.90
14122;DHT22;7139;48.114;11.442;2022-07-04T07:23:59;20.10;99.90
14122;DHT22;7139;48.114;11.442;2022-07-04T07:26:26;20.10;99.90
14122;DHT22;7139;48.114;11.442;2022-07-04T07:28:53;20.10;99.90
14122;DHT22;7139;48.114;11.442;2022-07-04T07:31:21;20.20;99.90
14122;DHT22;7139;48.114;11.442;2022-07-04T07:33:48;20.20;99.90
14122;DHT22;7139;48.114;11.442;2022-07-04T07:36:15;20.20;99.90
14122;DHT22;7139;48.114;11.442;2022-07-04T07:38:42;20.30;99.90
14122;DHT22;7139;48.114;11.442;2022-07-04T07:41:09;20.20;99.90
14122;DHT22;7139;48.114;11.442;2022-07-04T07:43:36;20.30;99.90
14122;DHT22;7139;48.114;11.442;2022-07-04T07:46:05;20.30;99.90
14122;DHT22;7139;48.114;11.442;2022-07-04T07:48:33;20.40;99.90
14122;DHT22;7139;48.114;11.442;2022-07-04T07:51:00;20.40;99.90
14122;DHT22;7139;48.114;11.442;2022-07-04T07:53:27;20.50;99.90
14122;DHT22;7139;48.114;11.442;2022-07-04T07:55:53;20.50;99.90
14122;DHT22;7139;48.114;11.442;2022-07-04T07:58:20;20.60;99.90
14122;DHT22;7139;48.114;11.442;2022-07-04T08:00:47;20.60;99.90
14122;DHT22;7139;48.114;11.442;2022-07-04T08:03:14;20.60;99.90
14122;DHT22;7139;48.114;11.442;2022-07-04T08:06:00;20.70;99.90
14122;DHT22;7139;48.114;11.442;2022-07-04T08:08:26;20.90;99.90
14122;DHT22;7139;48.114;11.442;2022-07-04T08:10:53;21.00;99.90
14122;DHT22;7139;48.114;11.442;2022-07-04T08:13:20;21.10;99.90
14122;DHT22;7139;48.114;11.442;2022-07-04T08:15:47;21.10;99.90
14122;DHT22;7139;48.114;11.442;2022-07-04T08:18:13;21.20;99.90
14122;DHT22;7139;48.114;11.442;2022-07-04T08:20:41;21.20;99.90
14122;DHT22;7139;48.114;11.442;2022-07-04T08:23:10;21.30;99.90
14122;DHT22;7139;48.114;11.442;2022-07-04T08:25:37;21.30;99.90
14122;DHT22;7139;48.114;11.442;2022-07-04T08:28:04;21.30;99.90
14122;DHT22;7139;48.114;11.442;2022-07-04T08:30:30;21.40;99.90
14122;DHT22;7139;48.114;11.442;2022-07-04T08:32:57;21.40;99.90
14122;DHT22;7139;48.114;11.442;2022-07-04T08:35:24;21.50;99.90
14122;DHT22;7139;48.114;11.442;2022-07-04T08:37:51;21.60;99.90
14122;DHT22;7139;48.114;11.442;2022-07-04T08:40:20;21.70;99.90
14122;DHT22;7139;48.114;11.442;2022-07-04T08:42:49;21.90;99.90
14122;DHT22;7139;48.114;11.442;2022-07-04T08:45:16;22.00;99.90
14122;DHT22;7139;48.114;11.442;2022-07-04T08:47:44;22.20;99.90
14122;DHT22;7139;48.114;11.442;2022-07-04T08:50:18;22.40;99.90
14122;DHT22;7139;48.114;11.442;2022-07-04T08:52:58;22.60;99.90
14122;DHT22;7139;48.114;11.442;2022-07-04T08:55:28;22.90;99.90
14122;DHT22;7139;48.114;11.442;2022-07-04T08:58:12;23.20;99.90
14122;DHT22;7139;48.114;11.442;2022-07-04T09:00:57;23.40;99.90
14122;DHT22;7139;48.114;11.442;2022-07-04T09:03:25;23.40;99.90
14122;DHT22;7139;48.114;11.442;2022-07-04T09:05:52;23.50;99.90
14122;DHT22;7139;48.114;11.442;2022-07-04T09:08:19;23.60;99.90
14122;DHT22;7139;48.114;11.442;2022-07-04T09:10:48;23.60;99.80
14122;DHT22;7139;48.114;11.442;2022-07-04T09:13:15;23.60;99.90
14122;DHT22;7139;48.114;11.442;2022-07-04T09:15:44;23.60;99.90
14122;DHT22;7139;48.114;11.442;2022-07-04T09:18:23;23.80;99.90
14122;DHT22;7139;48.114;11.442;2022-07-04T09:20:50;24.00;99.90
14122;DHT22;7139;48.114;11.442;2022-07-04T09:23:19;24.10;99.60
14122;DHT22;7139;48.114;11.442;2022-07-04T09:25:47;24.20;98.80
14122;DHT22;7139;48.114;11.442;2022-07-04T09:28:27;24.20;99.20
14122;DHT22;7139;48.114;11.442;2022-07-04T09:30:54;24.10;98.10
14122;DHT22;7139;48.114;11.442;2022-07-04T09:33:21;24.10;98.70
14122;DHT22;7139;48.114;11.442;2022-07-04T09:35:48;24.10;98.10
14122;DHT22;7139;48.114;11.442;2022-07-04T09:38:22;24.20;98.00
14122;DHT22;7139;48.114;11.442;2022-07-04T09:40:53;24.10;98.40
14122;DHT22;7139;48.114;11.442;2022-07-04T09:44:01;24.40;99.80
14122;DHT22;7139;48.114;11.442;2022-07-04T09:46:30;24.60;97.50
14122;DHT22;7139;48.114;11.442;2022-07-04T09:48:56;24.60;96.70
14122;DHT22;7139;48.114;11.442;2022-07-04T09:51:37;24.60;97.50
14122;DHT22;7139;48.114;11.442;2022-07-04T09:54:15;24.60;97.10
14122;DHT22;7139;48.114;11.442;2022-07-04T09:56:46;24.70;98.10
14122;DHT22;7139;48.114;11.442;2022-07-04T09:59:13;24.80;97.20
14122;DHT22;7139;48.114;11.442;2022-07-04T10:01:39;24.80;96.30
14122;DHT22;7139;48.114;11.442;2022-07-04T10:04:06;24.90;96.30
14122;DHT22;7139;48.114;11.442;2022-07-04T10:06:36;25.00;96.00
14122;DHT22;7139;48.114;11.442;2022-07-04T10:09:08;24.90;96.10
14122;DHT22;7139;48.114;11.442;2022-07-04T10:11:36;25.00;95.40
14122;DHT22;7139;48.114;11.442;2022-07-04T10:14:06;25.00;95.10
14122;DHT22;7139;48.114;11.442;2022-07-04T10:16:33;25.00;95.50
14122;DHT22;7139;48.114;11.442;2022-07-04T10:19:01;25.10;95.10
14122;DHT22;7139;48.114;11.442;2022-07-04T10:21:28;25.10;95.20
14122;DHT22;7139;48.114;11.442;2022-07-04T10:23:55;25.20;95.40
14122;DHT22;7139;48.114;11.442;2022-07-04T10:26:22;25.10;95.60
14122;DHT22;7139;48.114;11.442;2022-07-04T10:28:50;25.10;95.50
14122;DHT22;7139;48.114;11.442;2022-07-04T10:31:18;25.10;94.80
14122;DHT22;7139;48.114;11.442;2022-07-04T10:33:47;25.00;94.20
14122;DHT22;7139;48.114;11.442;2022-07-04T10:36:15;24.90;94.50
14122;DHT22;7139;48.114;11.442;2022-07-04T10:38:51;24.90;94.70
14122;DHT22;7139;48.114;11.442;2022-07-04T10:41:18;24.90;94.70
14122;DHT22;7139;48.114;11.442;2022-07-04T10:43:57;24.90;95.20
14122;DHT22;7139;48.114;11.442;2022-07-04T10:46:35;24.80;94.10
14122;DHT22;7139;48.114;11.442;2022-07-04T10:49:05;24.80;94.30
14122;DHT22;7139;48.114;11.442;2022-07-04T10:51:38;24.80;94.90
14122;DHT22;7139;48.114;11.442;2022-07-04T10:54:07;24.80;95.20
14122;DHT22;7139;48.114;11.442;2022-07-04T10:56:42;24.80;94.50
14122;DHT22;7139;48.114;11.442;2022-07-04T10:59:12;24.70;94.60
14122;DHT22;7139;48.114;11.442;2022-07-04T11:01:50;24.70;94.80
14122;DHT22;7139;48.114;11.442;2022-07-04T11:04:44;24.70;94.70
14122;DHT22;7139;48.114;11.442;2022-07-04T11:07:11;24.70;94.90
14122;DHT22;7139;48.114;11.442;2022-07-04T11:09:38;24.70;94.60
14122;DHT22;7139;48.114;11.442;2022-07-04T11:12:05;24.70;95.00
14122;DHT22;7139;48.114;11.442;2022-07-04T11:14:36;24.80;94.30
14122;DHT22;7139;48.114;11.442;2022-07-04T11:17:05;24.80;93.80
14122;DHT22;7139;48.114;11.442;2022-07-04T11:19:32;24.80;93.90
14122;DHT22;7139;48.114;11.442;2022-07-04T11:21:59;25.00;93.60
14122;DHT22;7139;48.114;11.442;2022-07-04T11:24:27;25.10;93.60
14122;DHT22;7139;48.114;11.442;2022-07-04T11:26:54;25.10;94.10
14122;DHT22;7139;48.114;11.442;2022-07-04T11:29:21;25.10;94.10
14122;DHT22;7139;48.114;11.442;2022-07-04T11:31:49;25.10;93.60
14122;DHT22;7139;48.114;11.442;2022-07-04T11:34:18;25.20;92.50
14122;DHT22;7139;48.114;11.442;2022-07-04T11:36:46;25.20;93.10
14122;DHT22;7139;48.114;11.442;2022-07-04T11:39:15;25.20;92.80
14122;DHT22;7139;48.114;11.442;2022-07-04T11:41:46;25.20;93.50
14122;DHT22;7139;48.114;11.442;2022-07-04T11:44:32;25.30;94.60
14122;DHT22;7139;48.114;11.442;2022-07-04T11:47:16;25.40;92.80
14122;DHT22;7139;48.114;11.442;2022-07-04T11:49:47;25.50;93.30
14122;DHT22;7139;48.114;11.442;2022-07-04T11:52:16;25.60;93.20
14122;DHT22;7139;48.114;11.442;2022-07-04T11:54:44;25.80;92.50
14122;DHT22;7139;48.114;11.442;2022-07-04T11:57:13;25.80;92.90
14122;DHT22;7139;48.114;11.442;2022-07-04T11:59:41;25.90;93.40
14122;DHT22;7139;48.114;11.442;2022-07-04T12:02:15;26.00;93.00
14122;DHT22;7139;48.114;11.442;2022-07-04T12:04:42;26.00;93.10
14122;DHT22;7139;48.114;11.442;2022-07-04T12:07:12;26.10;92.40
14122;DHT22;7139;48.114;11.442;2022-07-04T12:09:40;26.20;92.00
14122;DHT22;7139;48.114;11.442;2022-07-04T12:12:07;26.30;92.70
14122;DHT22;7139;48.114;11.442;2022-07-04T12:14:35;26.50;92.00
14122;DHT22;7139;48.114;11.442;2022-07-04T12:17:16;26.50;92.00
14122;DHT22;7139;48.114;11.442;2022-07-04T12:19:50;26.50;91.40
14122;DHT22;7139;48.114;11.442;2022-07-04T12:22:30;26.40;90.70
14122;DHT22;7139;48.114;11.442;2022-07-04T12:24:58;26.50;92.50
14122;DHT22;7139;48.114;11.442;2022-07-04T12:27:26;26.60;91.70
14122;DHT22;7139;48.114;11.442;2022-07-04T12:29:54;26.50;90.60
14122;DHT22;7139;48.114;11.442;2022-07-04T12:32:21;26.50;90.90
14122;DHT22;7139;48.114;11.442;2022-07-04T12:34:49;26.60;90.60
14122;DHT22;7139;48.114;11.442;2022-07-04T12:37:16;26.70;91.00
14122;DHT22;7139;48.114;11.442;2022-07-04T12:39:44;26.80;90.30
14122;DHT22;7139;48.114;11.442;2022-07-04T12:42:13;26.90;91.00
14122;DHT22;7139;48.114;11.442;2022-07-04T12:44:41;26.80;90.80
14122;DHT22;7139;48.114;11.442;2022-07-04T12:47:09;26.80;90.90
14122;DHT22;7139;48.114;11.442;2022-07-04T12:49:37;26.60;91.10
14122;DHT22;7139;48.114;11.442;2022-07-04T12:52:06;26.50;91.30
14122;DHT22;7139;48.114;11.442;2022-07-04T12:54:33;26.50;90.90
14122;DHT22;7139;48.114;11.442;2022-07-04T12:57:13;26.40;91.70
14122;DHT22;7139;48.114;11.442;2022-07-04T12:59:40;26.50;91.70
14122;DHT22;7139;48.114;11.442;2022-07-04T13:02:08;26.50;91.00
14122;DHT22;7139;48.114;11.442;2022-07-04T13:04:35;26.60;92.10
14122;DHT22;7139;48.114;11.442;2022-07-04T13:07:13;26.90;91.80
14122;DHT22;7139;48.114;11.442;2022-07-04T13:09:41;27.00;91.40
14122;DHT22;7139;48.114;11.442;2022-07-04T13:12:08;27.10;90.80
14122;DHT22;7139;48.114;11.442;2022-07-04T13:14:53;27.20;90.60
14122;DHT22;7139;48.114;11.442;2022-07-04T13:17:21;27.20;90.90
14122;DHT22;7139;48.114;11.442;2022-07-04T13:19:48;26.90;90.70
14122;DHT22;7139;48.114;11.442;2022-07-04T13:22:14;26.70;91.10
14122;DHT22;7139;48.114;11.442;2022-07-04T13:24:41;26.60;91.10
14122;DHT22;7139;48.114;11.442;2022-07-04T13:27:08;26.60;91.70
14122;DHT22;7139;48.114;11.442;2022-07-04T13:29:35;26.60;91.70
14122;DHT22;7139;48.114;11.442;2022-07-04T13:32:04;26.70;91.50
14122;DHT22;7139;48.114;11.442;2022-07-04T13:34:31;26.70;91.20
14122;DHT22;7139;48.114;11.442;2022-07-04T13:36:58;26.50;90.40
14122;DHT22;7139;48.114;11.442;2022-07-04T13:39:25;26.40;91.20
14122;DHT22;7139;48.114;11.442;2022-07-04T13:41:52;26.50;91.40
14122;DHT22;7139;48.114;11.442;2022-07-04T13:44:18;26.50;90.80
14122;DHT22;7139;48.114;11.442;2022-07-04T13:46:45;26.50;91.40
14122;DHT22;7139;48.114;11.442;2022-07-04T13:49:14;26.60;91.40
14122;DHT22;7139;48.114;11.442;2022-07-04T13:51:41;26.80;91.10
14122;DHT22;7139;48.114;11.442;2022-07-04T13:54:08;26.90;91.00
14122;DHT22;7139;48.114;11.442;2022-07-04T13:56:35;27.00;90.00
14122;DHT22;7139;48.114;11.442;2022-07-04T13:59:02;27.20;90.10
14122;DHT22;7139;48.114;11.442;2022-07-04T14:01:29;27.20;90.00
14122;DHT22;7139;48.114;11.442;2022-07-04T14:03:56;26.90;89.40
14122;DHT22;7139;48.114;11.442;2022-07-04T14:06:24;26.60;89.10
14122;DHT22;7139;48.114;11.442;2022-07-04T14:08:51;26.50;88.70
14122;DHT22;7139;48.114;11.442;2022-07-04T14:11:18;26.40;89.40
14122;DHT22;7139;48.114;11.442;2022-07-04T14:13:45;26.30;89.80
14122;DHT22;7139;48.114;11.442;2022-07-04T14:16:12;26.40;90.50
14122;DHT22;7139;48.114;11.442;2022-07-04T14:18:39;26.40;90.60
14122;DHT22;7139;48.114;11.442;2022-07-04T14:21:05;26.40;90.90
14122;DHT22;7139;48.114;11.442;2022-07-04T14:23:34;26.30;90.50
14122;DHT22;7139;48.114;11.442;2022-07-04T14:26:08;26.20;90.60
14122;DHT22;7139;48.114;11.442;2022-07-04T14:28:35;26.20;90.80
14122;DHT22;7139;48.114;11.442;2022-07-04T14:31:02;26.40;91.40
14122;DHT22;7139;48.114;11.442;2022-07-04T14:33:28;26.60;91.40
14122;DHT22;7139;48.114;11.442;2022-07-04T14:35:55;26.60;89.20
14122;DHT22;7139;48.114;11.442;2022-07-04T14:38:22;26.60;90.60
14122;DHT22;7139;48.114;11.442;2022-07-04T14:40:50;26.50;90.00
14122;DHT22;7139;48.114;11.442;2022-07-04T14:43:17;26.50;90.70
14122;DHT22;7139;48.114;11.442;2022-07-04T14:45:44;26.40;90.00
14122;DHT22;7139;48.114;11.442;2022-07-04T14:48:12;26.30;90.50
14122;DHT22;7139;48.114;11.442;2022-07-04T14:50:39;26.20;90.90
14122;DHT22;7139;48.114;11.442;2022-07-04T14:53:06;26.30;91.00
14122;DHT22;7139;48.114;11.442;2022-07-04T14:55:32;26.40;91.10
14122;DHT22;7139;48.114;11.442;2022-07-04T14:58:00;26.60;91.90
14122;DHT22;7139;48.114;11.442;2022-07-04T15:00:27;26.80;90.90
14122;DHT22;7139;48.114;11.442;2022-07-04T15:02:54;26.90;90.80
14122;DHT22;7139;48.114;11.442;2022-07-04T15:05:21;27.00;88.00
14122;DHT22;7139;48.114;11.442;2022-07-04T15:07:47;26.80;88.90
14122;DHT22;7139;48.114;11.442;2022-07-04T15:10:14;26.90;89.90
14122;DHT22;7139;48.114;11.442;2022-07-04T15:12:41;26.90;90.30
14122;DHT22;7139;48.114;11.442;2022-07-04T15:15:10;27.00;88.40
14122;DHT22;7139;48.114;11.442;2022-07-04T15:17:37;27.10;89.30
14122;DHT22;7139;48.114;11.442;2022-07-04T15:20:05;27.20;89.80
14122;DHT22;7139;48.114;11.442;2022-07-04T15:22:49;27.40;90.10
14122;DHT22;7139;48.114;11.442;2022-07-04T15:25:33;27.50;90.50
14122;DHT22;7139;48.114;11.442;2022-07-04T15:28:00;27.50;88.90
14122;DHT22;7139;48.114;11.442;2022-07-04T15:30:28;27.50;88.30
14122;DHT22;7139;48.114;11.442;2022-07-04T15:32:55;27.30;88.40
14122;DHT22;7139;48.114;11.442;2022-07-04T15:35:22;27.20;88.60
14122;DHT22;7139;48.114;11.442;2022-07-04T15:37:49;27.10;88.70